createdAt,value
2023-04-18T00:00:48.806Z,66.68
2023-04-18T00:01:48.907Z,66.55
2023-04-18T00:02:48.931Z,66.57
2023-04-18T00:03:49.221Z,66.63
2023-04-18T00:04:49.135Z,66.68
2023-04-18T00:05:48.982Z,66.71
2023-04-18T00:06:49.043Z,66.78
2023-04-18T00:07:49.055Z,66.85
2023-04-18T00:08:49.093Z,66.75
2023-04-18T00:09:49.129Z,66.74
2023-04-18T00:10:49.167Z,66.79
2023-04-18T00:11:49.196Z,66.82
2023-04-18T00:12:49.231Z,66.86
2023-04-18T00:13:49.263Z,66.86
2023-04-18T00:14:49.292Z,67.55
2023-04-18T00:15:49.304Z,67.52
2023-04-18T00:16:49.397Z,67.47
2023-04-18T00:17:49.444Z,67.40
2023-04-18T00:18:49.443Z,67.35
2023-04-18T00:19:49.539Z,67.34
2023-04-18T00:20:49.589Z,67.36
2023-04-18T00:21:49.669Z,67.38
2023-04-18T00:22:49.700Z,67.32
2023-04-18T00:23:49.763Z,67.41
2023-04-18T00:24:49.837Z,67.11
2023-04-18T00:25:49.906Z,67.13
2023-04-18T00:26:50.009Z,67.07
2023-04-18T00:27:50.067Z,67.05
2023-04-18T00:28:50.118Z,67.06
2023-04-18T00:29:50.181Z,66.93
2023-04-18T00:30:50.198Z,66.93
2023-04-18T00:31:50.155Z,66.87
2023-04-18T00:32:50.209Z,66.72
2023-04-18T00:33:50.235Z,66.65
2023-04-18T00:34:50.216Z,66.62
2023-04-18T00:35:50.260Z,66.84
2023-04-18T00:36:50.222Z,66.59
2023-04-18T00:37:50.226Z,66.65
2023-04-18T00:38:50.283Z,67.18
2023-04-18T00:39:50.303Z,67.18
2023-04-18T00:40:50.372Z,66.98
2023-04-18T00:41:50.533Z,67.38
2023-04-18T00:42:50.553Z,67.76
2023-04-18T00:43:50.518Z,68.59
2023-04-18T00:44:50.597Z,68.56
2023-04-18T00:45:50.715Z,68.77
2023-04-18T00:46:50.697Z,69.18
2023-04-18T00:47:50.923Z,68.83
2023-04-18T00:48:51.651Z,68.90
2023-04-18T00:49:51.163Z,69.76
2023-04-18T00:50:50.945Z,70.02
2023-04-18T00:51:51.045Z,69.37
2023-04-18T00:52:51.105Z,69.31
2023-04-18T00:53:51.181Z,69.30
2023-04-18T00:54:51.247Z,69.51
2023-04-18T00:55:51.295Z,69.78
2023-04-18T00:56:51.327Z,69.19
2023-04-18T00:57:51.384Z,69.53
2023-04-18T00:58:51.457Z,69.73
2023-04-18T00:59:51.530Z,69.43
2023-04-18T01:00:51.632Z,69.98
2023-04-18T01:01:51.747Z,69.87
2023-04-18T01:02:51.835Z,69.98
2023-04-18T01:03:51.922Z,69.71
2023-04-18T01:04:51.847Z,70.33
2023-04-18T01:05:51.879Z,69.72
2023-04-18T01:06:51.954Z,70.23
2023-04-18T01:07:52.023Z,70.51
2023-04-18T01:08:52.072Z,70.35
2023-04-18T01:09:52.120Z,70.54
2023-04-18T01:10:52.242Z,70.62
2023-04-18T01:11:52.322Z,70.41
2023-04-18T01:12:52.392Z,70.57
2023-04-18T01:13:52.456Z,70.82
2023-04-18T01:14:52.488Z,70.52
2023-04-18T01:15:52.815Z,70.35
2023-04-18T01:16:52.648Z,70.03
2023-04-18T01:17:52.777Z,69.84
2023-04-18T01:18:52.731Z,69.73
2023-04-18T01:19:52.795Z,69.98
2023-04-18T01:20:52.881Z,71.25
2023-04-18T01:21:52.995Z,70.62
2023-04-18T01:22:52.996Z,70.25
2023-04-18T01:23:53.660Z,69.80
2023-04-18T01:24:53.649Z,69.51
2023-04-18T01:25:53.053Z,69.30
2023-04-18T01:26:53.075Z,69.27
2023-04-18T01:27:53.126Z,68.95
2023-04-18T01:28:53.163Z,68.73
2023-04-18T01:29:53.211Z,68.53
2023-04-18T01:30:53.292Z,68.37
2023-04-18T01:31:53.367Z,68.25
2023-04-18T01:32:53.512Z,68.11
2023-04-18T01:33:53.537Z,68.07
2023-04-18T01:34:53.571Z,67.92
2023-04-18T01:35:53.628Z,67.90
2023-04-18T01:36:53.653Z,67.78
2023-04-18T01:37:53.712Z,67.71
2023-04-18T01:38:53.732Z,68.33
2023-04-18T01:39:53.785Z,68.10
2023-04-18T01:40:53.814Z,67.90
2023-04-18T01:41:53.844Z,68.20
2023-04-18T01:42:53.892Z,67.92
2023-04-18T01:43:53.881Z,68.02
2023-04-18T01:44:53.916Z,67.94
2023-04-18T01:45:53.957Z,68.59
2023-04-18T01:46:54.065Z,68.83
2023-04-18T01:47:54.100Z,68.79
2023-04-18T01:48:54.065Z,69.06
2023-04-18T01:49:54.100Z,68.80
2023-04-18T01:50:54.146Z,68.99
2023-04-18T01:51:54.230Z,69.00
2023-04-18T01:52:54.305Z,69.34
2023-04-18T01:53:54.363Z,68.97
2023-04-18T01:54:54.471Z,69.17
2023-04-18T01:55:54.519Z,68.94
2023-04-18T01:56:54.588Z,68.99
2023-04-18T01:57:54.656Z,68.88
2023-04-18T01:58:55.645Z,68.62
2023-04-18T01:59:54.779Z,68.46
2023-04-18T02:00:54.866Z,68.36
2023-04-18T02:01:54.989Z,68.14
2023-04-18T02:02:54.978Z,68.20
2023-04-18T02:03:55.269Z,68.01
2023-04-18T02:04:54.961Z,67.93
2023-04-18T02:05:54.991Z,68.14
2023-04-18T02:06:55.014Z,68.08
2023-04-18T02:07:55.061Z,68.05
2023-04-18T02:08:55.099Z,68.56
2023-04-18T02:09:55.161Z,68.56
2023-04-18T02:10:55.197Z,68.70
2023-04-18T02:11:55.245Z,68.50
2023-04-18T02:12:55.266Z,68.06
2023-04-18T02:13:55.328Z,67.88
2023-04-18T02:14:55.371Z,68.83
2023-04-18T02:15:55.403Z,69.23
2023-04-18T02:16:55.489Z,69.23
2023-04-18T02:17:55.524Z,68.82
2023-04-18T02:18:55.540Z,68.73
2023-04-18T02:19:55.583Z,68.50
2023-04-18T02:20:55.674Z,68.39
2023-04-18T02:21:55.704Z,69.06
2023-04-18T02:22:55.779Z,69.90
2023-04-18T02:23:55.853Z,69.66
2023-04-18T02:24:55.910Z,69.47
2023-04-18T02:25:56.027Z,69.59
2023-04-18T02:26:56.022Z,69.47
2023-04-18T02:27:56.086Z,69.29
2023-04-18T02:28:56.106Z,69.42
2023-04-18T02:29:56.174Z,68.96
2023-04-18T02:30:56.227Z,69.00
2023-04-18T02:31:56.287Z,69.06
2023-04-18T02:32:56.317Z,69.31
2023-04-18T02:33:56.330Z,69.15
2023-04-18T02:34:56.322Z,69.49
2023-04-18T02:35:56.339Z,69.94
2023-04-18T02:36:56.338Z,69.84
2023-04-18T02:37:56.368Z,70.08
2023-04-18T02:38:56.372Z,70.21
2023-04-18T02:39:57.159Z,70.10
2023-04-18T02:40:56.463Z,69.74
2023-04-18T02:41:56.540Z,69.56
2023-04-18T02:42:56.483Z,69.27
2023-04-18T02:43:57.178Z,68.93
2023-04-18T02:44:56.572Z,68.53
2023-04-18T02:45:56.744Z,68.88
2023-04-18T02:46:56.798Z,68.67
2023-04-18T02:47:57.703Z,68.63
2023-04-18T02:48:56.868Z,68.33
2023-04-18T02:49:56.959Z,68.06
2023-04-18T02:50:57.025Z,68.31
2023-04-18T02:51:57.707Z,68.26
2023-04-18T02:52:57.110Z,68.15
2023-04-18T02:53:57.180Z,68.77
2023-04-18T02:54:57.220Z,68.35
2023-04-18T02:55:57.680Z,68.08
2023-04-18T02:56:57.354Z,67.97
2023-04-18T02:57:57.447Z,67.77
2023-04-18T02:58:57.464Z,67.59
2023-04-18T02:59:57.565Z,67.55
2023-04-18T03:00:57.684Z,67.61
2023-04-18T03:01:57.758Z,67.69
2023-04-18T03:02:57.971Z,67.65
2023-04-18T03:03:57.831Z,67.61
2023-04-18T03:04:57.886Z,67.53
2023-04-18T03:05:57.943Z,67.42
2023-04-18T03:06:58.021Z,67.25
2023-04-18T03:07:58.112Z,67.22
2023-04-18T03:08:58.200Z,67.29
2023-04-18T03:09:58.252Z,67.28
2023-04-18T03:10:58.327Z,68.53
2023-04-18T03:11:58.387Z,68.62
2023-04-18T03:12:58.420Z,69.07
2023-04-18T03:13:58.470Z,70.23
2023-04-18T03:14:58.536Z,69.61
2023-04-18T03:15:58.713Z,70.78
2023-04-18T03:16:58.688Z,71.23
2023-04-18T03:17:58.807Z,71.24
2023-04-18T03:18:58.853Z,70.77
2023-04-18T03:19:58.926Z,70.97
2023-04-18T03:20:59.011Z,70.89
2023-04-18T03:21:59.091Z,71.35
2023-04-18T03:23:00.156Z,70.92
2023-04-18T03:23:59.249Z,70.61
2023-04-18T03:24:59.330Z,70.41
2023-04-18T03:25:59.420Z,70.15
2023-04-18T03:26:59.508Z,70.45
2023-04-18T03:27:59.581Z,71.14
2023-04-18T03:28:59.665Z,71.48
2023-04-18T03:29:59.720Z,71.13
2023-04-18T03:30:59.823Z,70.64
2023-04-18T03:31:59.908Z,70.69
2023-04-18T03:32:59.961Z,70.50
2023-04-18T03:34:00.031Z,70.38
2023-04-18T03:35:00.086Z,69.83
2023-04-18T03:36:00.148Z,69.71
2023-04-18T03:37:00.209Z,69.70
2023-04-18T03:38:00.232Z,69.28
2023-04-18T03:39:00.360Z,69.21
2023-04-18T03:40:00.416Z,69.01
2023-04-18T03:41:00.497Z,68.68
2023-04-18T03:42:00.538Z,68.73
2023-04-18T03:43:00.528Z,69.00
2023-04-18T03:44:00.586Z,69.02
2023-04-18T03:45:00.566Z,68.78
2023-04-18T03:46:00.632Z,68.52
2023-04-18T03:47:00.632Z,68.35
2023-04-18T03:48:00.688Z,68.20
2023-04-18T03:49:00.663Z,68.22
2023-04-18T03:50:00.697Z,67.97
2023-04-18T03:51:00.802Z,68.50
2023-04-18T03:52:00.860Z,68.28
2023-04-18T03:53:00.910Z,67.99
2023-04-18T03:54:00.980Z,67.77
2023-04-18T03:55:01.045Z,67.60
2023-04-18T03:56:01.134Z,67.50
2023-04-18T03:57:01.195Z,67.42
2023-04-18T03:58:01.249Z,67.27
2023-04-18T03:59:01.299Z,67.30
2023-04-18T04:00:01.371Z,67.32
2023-04-18T04:01:01.490Z,67.26
2023-04-18T04:02:01.690Z,67.17
2023-04-18T04:03:01.887Z,67.06
2023-04-18T04:04:01.765Z,66.94
2023-04-18T04:05:01.909Z,67.05
2023-04-18T04:06:01.933Z,66.91
2023-04-18T04:07:01.872Z,66.87
2023-04-18T04:08:01.955Z,67.15
2023-04-18T04:09:01.921Z,66.96
2023-04-18T04:10:01.937Z,66.92
2023-04-18T04:11:02.041Z,66.82
2023-04-18T04:12:01.980Z,66.81
2023-04-18T04:13:01.980Z,66.66
2023-04-18T04:14:02.017Z,66.82
2023-04-18T04:15:02.037Z,67.11
2023-04-18T04:16:02.081Z,66.94
2023-04-18T04:17:02.088Z,66.75
2023-04-18T04:18:02.198Z,66.63
2023-04-18T04:19:02.256Z,66.64
2023-04-18T04:20:02.296Z,66.43
2023-04-18T04:21:02.324Z,66.68
2023-04-18T04:22:02.431Z,66.68
2023-04-18T04:23:02.495Z,66.70
2023-04-18T04:24:02.588Z,66.72
2023-04-18T04:25:02.643Z,66.82
2023-04-18T04:26:02.713Z,66.66
2023-04-18T04:27:02.809Z,66.77
2023-04-18T04:28:02.868Z,66.68
2023-04-18T04:29:02.904Z,66.67
2023-04-18T04:30:02.953Z,66.63
2023-04-18T04:31:02.994Z,66.51
2023-04-18T04:32:03.100Z,66.41
2023-04-18T04:33:03.074Z,66.38
2023-04-18T04:34:03.104Z,66.40
2023-04-18T04:35:03.107Z,66.52
2023-04-18T04:36:03.131Z,66.50
2023-04-18T04:37:03.142Z,66.67
2023-04-18T04:38:03.150Z,66.54
2023-04-18T04:39:03.182Z,66.20
2023-04-18T04:40:03.202Z,66.21
2023-04-18T04:41:03.205Z,66.03
2023-04-18T04:42:03.215Z,65.90
2023-04-18T04:43:03.221Z,66.14
2023-04-18T04:44:03.258Z,66.67
2023-04-18T04:45:03.347Z,67.51
2023-04-18T04:46:03.323Z,67.64
2023-04-18T04:47:03.296Z,69.19
2023-04-18T04:48:03.392Z,69.05
2023-04-18T04:49:03.295Z,69.47
2023-04-18T04:50:03.300Z,69.44
2023-04-18T04:51:03.339Z,69.10
2023-04-18T04:52:03.344Z,69.05
2023-04-18T04:53:03.371Z,68.88
2023-04-18T04:54:03.372Z,68.90
2023-04-18T04:55:03.401Z,69.20
2023-04-18T04:56:03.410Z,69.06
2023-04-18T04:57:03.482Z,68.59
2023-04-18T04:58:03.450Z,68.27
2023-04-18T04:59:03.447Z,67.83
2023-04-18T05:00:03.471Z,67.33
2023-04-18T05:01:04.222Z,67.14
2023-04-18T05:02:03.576Z,66.91
2023-04-18T05:03:03.692Z,67.15
2023-04-18T05:04:03.706Z,67.18
2023-04-18T05:05:03.562Z,67.21
2023-04-18T05:06:04.175Z,66.99
2023-04-18T05:07:03.568Z,67.28
2023-04-18T05:08:03.571Z,67.07
2023-04-18T05:09:03.631Z,66.94
2023-04-18T05:10:03.602Z,66.68
2023-04-18T05:11:03.611Z,66.34
2023-04-18T05:12:03.637Z,66.74
2023-04-18T05:13:03.636Z,67.27
2023-04-18T05:14:03.671Z,67.13
2023-04-18T05:15:03.681Z,66.85
2023-04-18T05:16:03.681Z,66.87
2023-04-18T05:17:03.720Z,67.32
2023-04-18T05:18:03.738Z,67.68
2023-04-18T05:19:03.757Z,67.36
2023-04-18T05:20:03.725Z,68.06
2023-04-18T05:21:03.753Z,68.41
2023-04-18T05:22:03.761Z,68.69
2023-04-18T05:23:03.826Z,68.52
2023-04-18T05:24:03.861Z,68.50
2023-04-18T05:25:03.898Z,69.55
2023-04-18T05:26:03.959Z,69.82
2023-04-18T05:27:04.031Z,69.00
2023-04-18T05:28:04.103Z,68.94
2023-04-18T05:29:04.177Z,68.49
2023-04-18T05:30:04.252Z,68.35
2023-04-18T05:31:04.360Z,68.35
2023-04-18T05:32:04.353Z,68.70
2023-04-18T05:33:04.438Z,68.05
2023-04-18T05:34:04.491Z,68.24
2023-04-18T05:35:04.602Z,67.73
2023-04-18T05:36:04.596Z,67.59
2023-04-18T05:37:04.702Z,67.07
2023-04-18T05:38:04.644Z,66.76
2023-04-18T05:39:04.674Z,67.08
2023-04-18T05:40:04.708Z,66.96
2023-04-18T05:41:04.722Z,66.63
2023-04-18T05:42:04.742Z,66.26
2023-04-18T05:43:04.750Z,65.99
2023-04-18T05:44:05.921Z,65.64
2023-04-18T05:45:04.818Z,65.44
2023-04-18T05:46:04.838Z,65.46
2023-04-18T05:47:05.485Z,65.72
2023-04-18T05:48:05.289Z,65.21
2023-04-18T05:49:04.863Z,64.96
2023-04-18T05:50:04.872Z,65.10
2023-04-18T05:51:05.708Z,64.66
2023-04-18T05:52:04.907Z,64.10
2023-04-18T05:53:04.905Z,63.89
2023-04-18T05:54:04.940Z,63.66
2023-04-18T05:55:05.007Z,63.59
2023-04-18T05:56:04.911Z,63.46
2023-04-18T05:57:05.009Z,63.26
2023-04-18T05:58:04.965Z,63.11
2023-04-18T05:59:05.070Z,62.54
2023-04-18T06:00:04.952Z,62.37
2023-04-18T06:01:04.954Z,62.51
2023-04-18T06:02:05.756Z,62.06
2023-04-18T06:03:07.880Z,61.78
2023-04-18T06:04:05.867Z,61.66
2023-04-18T06:05:05.296Z,61.27
2023-04-18T06:06:05.018Z,60.99
2023-04-18T06:07:05.024Z,60.56
2023-04-18T06:08:05.246Z,60.29
2023-04-18T06:09:05.015Z,60.14
2023-04-18T06:10:05.027Z,60.13
2023-04-18T06:11:05.711Z,59.68
2023-04-18T06:12:05.063Z,60.08
2023-04-18T06:13:05.004Z,60.40
2023-04-18T06:14:05.019Z,60.67
2023-04-18T06:15:05.015Z,60.35
2023-04-18T06:16:05.050Z,60.24
2023-04-18T06:17:05.008Z,59.71
2023-04-18T06:18:05.067Z,59.70
2023-04-18T06:19:05.065Z,60.32
2023-04-18T06:20:04.993Z,60.50
2023-04-18T06:21:07.722Z,59.90
2023-04-18T06:22:05.006Z,59.92
2023-04-18T06:23:05.017Z,60.34
2023-04-18T06:24:04.980Z,60.10
2023-04-18T06:25:05.039Z,59.61
2023-04-18T06:26:04.974Z,59.60
2023-04-18T06:27:04.995Z,59.64
2023-04-18T06:28:05.219Z,59.71
2023-04-18T06:29:04.987Z,59.51
2023-04-18T06:30:04.978Z,59.48
2023-04-18T06:31:05.071Z,59.12
2023-04-18T06:32:05.824Z,59.14
2023-04-18T06:33:05.124Z,59.66
2023-04-18T06:34:05.125Z,58.99
2023-04-18T06:35:05.071Z,58.79
2023-04-18T06:36:04.998Z,59.16
2023-04-18T06:37:05.023Z,58.80
2023-04-18T06:38:05.090Z,58.43
2023-04-18T06:39:05.009Z,58.15
2023-04-18T06:40:04.973Z,57.15
2023-04-18T06:41:05.001Z,57.67
2023-04-18T06:42:05.217Z,57.09
2023-04-18T06:43:04.931Z,57.18
2023-04-18T06:44:05.004Z,58.09
2023-04-18T06:45:04.916Z,57.23
2023-04-18T06:46:05.047Z,57.53
2023-04-18T06:47:04.912Z,56.67
2023-04-18T06:48:04.948Z,56.21
2023-04-18T06:49:04.989Z,55.56
2023-04-18T06:50:04.917Z,55.84
2023-04-18T06:51:04.838Z,55.94
2023-04-18T06:52:04.908Z,55.52
2023-04-18T06:53:04.870Z,56.17
2023-04-18T06:54:04.877Z,55.40
2023-04-18T06:55:04.895Z,54.99
2023-04-18T06:56:04.970Z,54.53
2023-04-18T06:57:04.993Z,54.24
2023-04-18T06:58:05.063Z,53.63
2023-04-18T06:59:05.070Z,53.67
2023-04-18T07:00:05.093Z,54.11
2023-04-18T07:01:05.094Z,54.21
2023-04-18T07:02:05.232Z,54.11
2023-04-18T07:03:05.382Z,53.90
2023-04-18T07:04:05.149Z,55.12
2023-04-18T07:05:05.153Z,56.15
2023-04-18T07:06:05.035Z,57.20
2023-04-18T07:07:05.012Z,56.85
2023-04-18T07:08:04.979Z,57.38
2023-04-18T07:09:05.244Z,57.46
2023-04-18T07:10:04.973Z,58.97
2023-04-18T07:11:05.082Z,57.82
2023-04-18T07:12:04.960Z,58.60
2023-04-18T07:13:04.928Z,59.21
2023-04-18T07:14:04.971Z,58.93
2023-04-18T07:15:04.917Z,60.35
2023-04-18T07:16:05.809Z,61.08
2023-04-18T07:17:05.026Z,60.43
2023-04-18T07:18:07.808Z,60.62
2023-04-18T07:19:04.900Z,60.56
2023-04-18T07:20:04.874Z,60.66
2023-04-18T07:21:04.872Z,59.62
2023-04-18T07:22:04.886Z,60.74
2023-04-18T07:23:04.903Z,58.88
2023-04-18T07:24:04.867Z,59.50
2023-04-18T07:25:05.641Z,59.07
2023-04-18T07:26:04.868Z,59.38
2023-04-18T07:27:08.867Z,58.90
2023-04-18T07:28:04.893Z,59.75
2023-04-18T07:29:04.874Z,58.64
2023-04-18T07:30:04.973Z,59.00
2023-04-18T07:31:04.848Z,58.90
2023-04-18T07:32:06.216Z,59.16
2023-04-18T07:33:06.912Z,58.37
2023-04-18T07:34:04.789Z,56.43
2023-04-18T07:35:04.777Z,56.63
2023-04-18T07:36:04.800Z,55.92
2023-04-18T07:37:04.832Z,55.48
2023-04-18T07:38:04.786Z,54.79
2023-04-18T07:39:04.877Z,55.22
2023-04-18T07:40:04.759Z,54.26
2023-04-18T07:41:05.935Z,53.37
2023-04-18T07:42:04.788Z,53.63
2023-04-18T07:43:04.874Z,53.68
2023-04-18T07:44:04.907Z,53.05
2023-04-18T07:45:04.810Z,52.01
2023-04-18T07:46:04.804Z,51.35
2023-04-18T07:47:04.792Z,50.34
2023-04-18T07:48:04.849Z,50.95
2023-04-18T07:49:04.834Z,51.84
2023-04-18T07:50:04.833Z,51.82
2023-04-18T07:51:04.819Z,51.09
2023-04-18T07:52:04.965Z,50.11
2023-04-18T07:53:04.979Z,48.56
2023-04-18T07:54:04.979Z,49.14
2023-04-18T07:55:04.925Z,50.40
2023-04-18T07:56:05.073Z,49.86
2023-04-18T07:57:04.982Z,50.59
2023-04-18T07:58:05.002Z,49.61
2023-04-18T07:59:05.087Z,49.62
2023-04-18T08:00:05.019Z,50.81
2023-04-18T08:01:05.034Z,50.86
2023-04-18T08:02:05.195Z,50.84
2023-04-18T08:03:05.229Z,50.11
2023-04-18T08:04:05.277Z,49.94
2023-04-18T08:05:05.182Z,49.06
2023-04-18T08:06:05.103Z,48.85
2023-04-18T08:07:05.162Z,50.20
2023-04-18T08:08:05.124Z,49.52
2023-04-18T08:09:05.131Z,50.29
2023-04-18T08:10:05.108Z,50.03
2023-04-18T08:11:06.761Z,49.45
2023-04-18T08:12:05.736Z,50.39
2023-04-18T08:13:05.754Z,50.36
2023-04-18T08:14:05.268Z,49.70
2023-04-18T08:15:05.335Z,50.09
2023-04-18T08:16:05.270Z,50.18
2023-04-18T08:17:05.224Z,50.80
2023-04-18T08:18:05.286Z,50.43
2023-04-18T08:19:05.224Z,50.53
2023-04-18T08:20:05.238Z,49.32
2023-04-18T08:21:05.242Z,48.72
2023-04-18T08:22:05.204Z,47.83
2023-04-18T08:23:08.701Z,47.00
2023-04-18T08:24:05.133Z,46.61
2023-04-18T08:25:05.858Z,46.46
2023-04-18T08:26:05.068Z,46.68
2023-04-18T08:27:05.052Z,47.95
2023-04-18T08:28:05.011Z,47.58
2023-04-18T08:29:04.939Z,47.16
2023-04-18T08:30:04.996Z,46.57
2023-04-18T08:31:04.852Z,46.06
2023-04-18T08:32:04.897Z,45.96
2023-04-18T08:33:04.875Z,45.30
2023-04-18T08:34:05.179Z,46.84
2023-04-18T08:35:04.671Z,46.93
2023-04-18T08:36:04.744Z,47.25
2023-04-18T08:37:04.640Z,48.32
2023-04-18T08:38:04.523Z,46.50
2023-04-18T08:39:04.503Z,45.70
2023-04-18T08:40:04.411Z,44.63
2023-04-18T08:41:05.398Z,44.16
2023-04-18T08:42:04.304Z,43.30
2023-04-18T08:43:05.251Z,42.82
2023-04-18T08:44:04.732Z,42.07
2023-04-18T08:45:04.220Z,42.42
2023-04-18T08:46:04.210Z,42.60
2023-04-18T08:47:04.095Z,41.85
2023-04-18T08:48:04.109Z,43.61
2023-04-18T08:49:04.837Z,43.64
2023-04-18T08:50:04.079Z,42.55
2023-04-18T08:51:03.952Z,41.96
2023-04-18T08:52:03.919Z,44.52
2023-04-18T08:53:03.905Z,44.78
2023-04-18T08:54:03.894Z,46.06
2023-04-18T08:55:04.038Z,46.44
2023-04-18T08:56:03.999Z,44.89
2023-04-18T08:57:04.083Z,45.74
2023-04-18T08:58:03.881Z,46.23
2023-04-18T08:59:03.859Z,46.21
2023-04-18T09:00:03.869Z,46.36
2023-04-18T09:01:03.891Z,44.67
2023-04-18T09:02:04.841Z,44.91
2023-04-18T09:03:04.164Z,46.75
2023-04-18T09:04:03.905Z,47.27
2023-04-18T09:05:03.906Z,47.96
2023-04-18T09:06:03.929Z,46.24
2023-04-18T09:07:03.943Z,47.03
2023-04-18T09:08:03.908Z,47.37
2023-04-18T09:09:03.938Z,46.08
2023-04-18T09:10:03.907Z,45.19
2023-04-18T09:11:03.913Z,44.37
2023-04-18T09:12:03.891Z,44.09
2023-04-18T09:13:03.939Z,43.89
2023-04-18T09:14:03.876Z,44.15
2023-04-18T09:15:04.017Z,44.46
2023-04-18T09:16:03.877Z,44.85
2023-04-18T09:17:04.022Z,44.61
2023-04-18T09:18:03.883Z,45.34
2023-04-18T09:19:05.747Z,45.07
2023-04-18T09:20:03.833Z,46.01
2023-04-18T09:21:03.805Z,45.51
2023-04-18T09:22:03.762Z,44.73
2023-04-18T09:23:03.702Z,43.23
2023-04-18T09:24:03.647Z,43.70
2023-04-18T09:25:03.742Z,44.16
2023-04-18T09:26:04.156Z,44.27
2023-04-18T09:27:03.506Z,44.68
2023-04-18T09:28:03.481Z,44.66
2023-04-18T09:29:03.439Z,45.73
2023-04-18T09:30:03.401Z,45.30
2023-04-18T09:31:03.377Z,44.92
2023-04-18T09:32:03.298Z,44.04
2023-04-18T09:33:03.244Z,45.12
2023-04-18T09:34:03.171Z,47.23
2023-04-18T09:35:04.606Z,46.94
2023-04-18T09:36:03.105Z,45.64
2023-04-18T09:37:03.077Z,45.05
2023-04-18T09:38:03.062Z,45.28
2023-04-18T09:39:02.968Z,45.95
2023-04-18T09:40:02.925Z,45.58
2023-04-18T09:41:02.909Z,45.88
2023-04-18T09:42:02.833Z,46.06
2023-04-18T09:43:03.755Z,46.03
2023-04-18T09:44:02.756Z,45.92
2023-04-18T09:45:02.715Z,46.42
2023-04-18T09:46:02.811Z,45.81
2023-04-18T09:47:02.774Z,46.13
2023-04-18T09:48:02.599Z,48.42
2023-04-18T09:49:02.550Z,47.94
2023-04-18T09:50:03.274Z,47.21
2023-04-18T09:51:02.479Z,46.27
2023-04-18T09:52:02.515Z,46.20
2023-04-18T09:53:02.515Z,45.80
2023-04-18T09:54:02.536Z,46.15
2023-04-18T09:55:02.523Z,45.32
2023-04-18T09:56:02.530Z,45.55
2023-04-18T09:57:02.488Z,44.62
2023-04-18T09:58:02.510Z,44.99
2023-04-18T09:59:02.464Z,45.38
2023-04-18T10:00:02.490Z,45.11
2023-04-18T10:01:02.455Z,45.49
2023-04-18T10:02:02.523Z,45.39
2023-04-18T10:03:02.564Z,44.20
2023-04-18T10:04:02.511Z,44.36
2023-04-18T10:05:02.561Z,43.69
2023-04-18T10:06:02.486Z,43.92
2023-04-18T10:07:02.360Z,43.34
2023-04-18T10:08:02.387Z,43.08
2023-04-18T10:09:02.349Z,43.86
2023-04-18T10:10:02.371Z,44.76
2023-04-18T10:11:02.364Z,45.17
2023-04-18T10:12:02.354Z,44.68
2023-04-18T10:13:02.360Z,45.11
2023-04-18T10:14:02.299Z,45.01
2023-04-18T10:15:02.340Z,45.70
2023-04-18T10:16:02.403Z,45.71
2023-04-18T10:17:02.440Z,45.57
2023-04-18T10:18:05.094Z,45.20
2023-04-18T10:19:02.295Z,46.20
2023-04-18T10:20:02.268Z,44.83
2023-04-18T10:21:02.194Z,45.35
2023-04-18T10:22:02.139Z,44.02
2023-04-18T10:23:02.090Z,46.08
2023-04-18T10:24:02.130Z,45.97
2023-04-18T10:25:01.974Z,45.76
2023-04-18T10:26:01.896Z,46.19
2023-04-18T10:27:01.812Z,45.53
2023-04-18T10:28:01.787Z,45.93
2023-04-18T10:29:01.712Z,46.40
2023-04-18T10:30:01.660Z,48.08
2023-04-18T10:31:01.770Z,47.55
2023-04-18T10:32:01.525Z,46.38
2023-04-18T10:33:01.495Z,46.62
2023-04-18T10:34:05.331Z,47.27
2023-04-18T10:35:02.376Z,46.95
2023-04-18T10:36:04.918Z,46.33
2023-04-18T10:37:01.287Z,47.70
2023-04-18T10:38:01.268Z,47.85
2023-04-18T10:39:01.222Z,47.91
2023-04-18T10:40:01.318Z,48.16
2023-04-18T10:41:01.068Z,47.76
2023-04-18T10:42:01.000Z,46.03
2023-04-18T10:43:00.948Z,46.48
2023-04-18T10:44:00.937Z,45.33
2023-04-18T10:45:00.842Z,44.44
2023-04-18T10:46:01.127Z,44.70
2023-04-18T10:47:00.798Z,43.79
2023-04-18T10:48:00.781Z,42.84
2023-04-18T10:49:00.601Z,43.66
2023-04-18T10:50:00.562Z,43.63
2023-04-18T10:51:01.356Z,46.02
2023-04-18T10:52:00.456Z,44.36
2023-04-18T10:53:00.365Z,43.70
2023-04-18T10:54:00.337Z,43.30
2023-04-18T10:55:00.800Z,41.89
2023-04-18T10:56:00.216Z,42.15
2023-04-18T10:57:00.121Z,43.82
2023-04-18T10:58:00.074Z,44.80
2023-04-18T10:58:59.992Z,45.94
2023-04-18T10:59:59.962Z,44.22
2023-04-18T11:00:59.885Z,45.28
2023-04-18T11:02:00.138Z,43.10
2023-04-18T11:02:59.986Z,42.47
2023-04-18T11:03:59.852Z,42.74
2023-04-18T11:05:00.579Z,44.14
2023-04-18T11:05:59.787Z,43.47
2023-04-18T11:06:59.692Z,43.73
2023-04-18T11:07:59.721Z,43.80
2023-04-18T11:08:59.788Z,42.34
2023-04-18T11:09:59.676Z,42.17
2023-04-18T11:10:59.636Z,42.34
2023-04-18T11:11:59.652Z,42.93
2023-04-18T11:12:59.690Z,43.65
2023-04-18T11:13:59.682Z,42.92
2023-04-18T11:14:59.579Z,42.69
2023-04-18T11:15:59.799Z,43.54
2023-04-18T11:16:59.559Z,43.01
2023-04-18T11:17:59.567Z,43.43
2023-04-18T11:18:59.480Z,42.07
2023-04-18T11:19:59.473Z,42.12
2023-04-18T11:21:01.533Z,42.71
2023-04-18T11:21:59.457Z,45.08
2023-04-18T11:22:59.428Z,44.77
2023-04-18T11:23:59.414Z,43.80
2023-04-18T11:24:59.421Z,42.89
2023-04-18T11:25:59.429Z,44.42
2023-04-18T11:26:59.424Z,44.13
2023-04-18T11:27:59.379Z,43.84
2023-04-18T11:28:59.438Z,44.89
2023-04-18T11:29:59.399Z,45.18
2023-04-18T11:30:59.387Z,44.57
2023-04-18T11:31:59.832Z,44.85
2023-04-18T11:32:59.560Z,44.30
2023-04-18T11:33:59.371Z,44.12
2023-04-18T11:34:59.407Z,44.18
2023-04-18T11:35:59.509Z,43.67
2023-04-18T11:36:59.514Z,43.86
2023-04-18T11:37:59.438Z,43.88
2023-04-18T11:38:59.515Z,43.98
2023-04-18T11:39:59.453Z,42.78
2023-04-18T11:40:59.481Z,42.31
2023-04-18T11:41:59.495Z,43.70
2023-04-18T11:42:59.459Z,43.33
2023-04-18T11:43:59.554Z,42.13
2023-04-18T11:44:59.487Z,42.32
2023-04-18T11:46:00.430Z,41.52
2023-04-18T11:46:59.430Z,42.81
2023-04-18T11:47:59.448Z,43.26
2023-04-18T11:48:59.320Z,43.02
2023-04-18T11:49:59.260Z,42.67
2023-04-18T11:50:59.222Z,43.86
2023-04-18T11:51:59.224Z,42.04
2023-04-18T11:52:59.110Z,42.20
2023-04-18T11:53:59.059Z,42.40
2023-04-18T11:54:59.017Z,42.44
2023-04-18T11:55:59.076Z,43.32
2023-04-18T11:56:58.904Z,41.92
2023-04-18T11:57:58.893Z,41.20
2023-04-18T11:58:58.860Z,40.81
2023-04-18T11:59:58.829Z,42.03
2023-04-18T12:00:58.875Z,41.58
2023-04-18T12:01:59.043Z,41.84
2023-04-18T12:02:59.076Z,41.10
2023-04-18T12:03:58.922Z,40.26
2023-04-18T12:04:59.320Z,39.55
2023-04-18T12:05:59.371Z,40.82
2023-04-18T12:06:58.713Z,40.48
2023-04-18T12:07:58.670Z,39.89
2023-04-18T12:08:58.639Z,39.05
2023-04-18T12:09:58.993Z,39.16
2023-04-18T12:10:58.576Z,40.49
2023-04-18T12:11:58.790Z,39.64
2023-04-18T12:12:58.638Z,40.98
2023-04-18T12:13:58.542Z,42.28
2023-04-18T12:14:58.481Z,40.36
2023-04-18T12:15:58.516Z,40.46
2023-04-18T12:16:58.485Z,40.75
2023-04-18T12:17:59.406Z,41.81
2023-04-18T12:18:58.325Z,41.95
2023-04-18T12:19:58.284Z,41.78
2023-04-18T12:20:58.149Z,41.16
2023-04-18T12:21:58.155Z,40.11
2023-04-18T12:22:58.015Z,40.09
2023-04-18T12:23:57.947Z,38.76
2023-04-18T12:24:57.969Z,38.42
2023-04-18T12:25:57.816Z,38.46
2023-04-18T12:26:58.085Z,41.34
2023-04-18T12:27:57.689Z,40.73
2023-04-18T12:28:57.639Z,40.84
2023-04-18T12:29:57.710Z,40.11
2023-04-18T12:30:57.579Z,39.54
2023-04-18T12:31:57.677Z,40.53
2023-04-18T12:32:57.466Z,40.59
2023-04-18T12:33:57.351Z,40.82
2023-04-18T12:34:57.316Z,41.33
2023-04-18T12:35:57.247Z,41.25
2023-04-18T12:36:57.213Z,40.60
2023-04-18T12:37:57.149Z,39.55
2023-04-18T12:38:57.814Z,39.59
2023-04-18T12:39:57.315Z,38.92
2023-04-18T12:40:57.272Z,39.36
2023-04-18T12:41:57.269Z,39.25
2023-04-18T12:42:57.332Z,39.10
2023-04-18T12:43:57.194Z,38.71
2023-04-18T12:44:57.988Z,38.96
2023-04-18T12:45:57.327Z,38.67
2023-04-18T12:46:57.535Z,38.75
2023-04-18T12:47:57.808Z,39.01
2023-04-18T12:48:57.778Z,39.16
2023-04-18T12:49:57.000Z,39.06
2023-04-18T12:50:57.789Z,39.43
2023-04-18T12:51:57.130Z,39.54
2023-04-18T12:52:57.175Z,39.51